sensor_id;sensor_type;location;lat;lon;timestamp;pressure;altitude;pressure_sealevel;temperature;humidity
45253;BME280;63171;50.520;30.486;2023-04-23T00:05:14;99911.66;;;14.56;37.98
45253;BME280;63171;50.520;30.486;2023-04-23T00:06:07;99907.13;;;14.58;38.07
45253;BME280;63171;50.520;30.486;2023-04-23T00:06:59;99903.84;;;14.65;38.24
45253;BME280;63171;50.520;30.486;2023-04-23T00:07:52;99901.81;;;14.69;38.15
45253;BME280;63171;50.520;30.486;2023-04-23T00:08:42;99901.84;;;14.58;38.09
45253;BME280;63171;50.520;30.486;2023-04-23T00:09:34;99903.75;;;14.56;38.13
45253;BME280;63171;50.520;30.486;2023-04-23T00:10:25;99905.66;;;14.65;38.33
45253;BME280;63171;50.520;30.486;2023-04-23T00:11:16;99906.84;;;14.49;38.06
45253;BME280;63171;50.520;30.486;2023-04-23T00:12:07;99905.13;;;14.26;38.18
45253;BME280;63171;50.520;30.486;2023-04-23T00:12:59;99908.28;;;14.42;38.37
45253;BME280;63171;50.520;30.486;2023-04-23T00:13:49;99909.94;;;14.43;38.09
45253;BME280;63171;50.520;30.486;2023-04-23T00:14:40;99914.09;;;14.24;38.26
45253;BME280;63171;50.520;30.486;2023-04-23T00:15:30;99916.38;;;14.28;38.37
45253;BME280;63171;50.520;30.486;2023-04-23T00:16:22;99911.97;;;14.40;38.39
45253;BME280;63171;50.520;30.486;2023-04-23T00:17:12;99912.84;;;14.52;38.47
45253;BME280;63171;50.520;30.486;2023-04-23T00:18:03;99915.72;;;14.60;38.49
45253;BME280;63171;50.520;30.486;2023-04-23T00:18:53;99914.19;;;14.57;38.33
45253;BME280;63171;50.520;30.486;2023-04-23T00:19:44;99919.78;;;14.53;38.28
45253;BME280;63171;50.520;30.486;2023-04-23T00:20:33;99917.78;;;14.56;38.41
45253;BME280;63171;50.520;30.486;2023-04-23T00:21:25;99912.84;;;14.63;38.40
45253;BME280;63171;50.520;30.486;2023-04-23T00:22:16;99913.31;;;14.68;38.46
45253;BME280;63171;50.520;30.486;2023-04-23T00:23:10;99913.31;;;14.68;38.48
45253;BME280;63171;50.520;30.486;2023-04-23T00:23:59;99922.69;;;14.72;38.49
45253;BME280;63171;50.520;30.486;2023-04-23T00:24:50;99919.78;;;14.64;38.40
45253;BME280;63171;50.520;30.486;2023-04-23T00:25:40;99915.34;;;14.64;38.53
45253;BME280;63171;50.520;30.486;2023-04-23T00:26:31;99913.69;;;14.63;38.37
45253;BME280;63171;50.520;30.486;2023-04-23T00:27:21;99915.97;;;14.45;38.47
45253;BME280;63171;50.520;30.486;2023-04-23T00:28:12;99922.31;;;14.54;38.38
45253;BME280;63171;50.520;30.486;2023-04-23T00:29:04;99918.34;;;14.48;38.37
45253;BME280;63171;50.520;30.486;2023-04-23T00:29:55;99917.47;;;14.37;38.43
45253;BME280;63171;50.520;30.486;2023-04-23T00:30:44;99914.38;;;14.43;38.56
45253;BME280;63171;50.520;30.486;2023-04-23T00:31:35;99926.84;;;14.52;38.56
45253;BME280;63171;50.520;30.486;2023-04-23T00:32:25;99917.41;;;14.61;38.77
45253;BME280;63171;50.520;30.486;2023-04-23T00:33:16;99915.97;;;14.57;38.58
45253;BME280;63171;50.520;30.486;2023-04-23T00:34:06;99916.69;;;14.59;38.75
45253;BME280;63171;50.520;30.486;2023-04-23T00:34:57;99917.78;;;14.56;38.69
45253;BME280;63171;50.520;30.486;2023-04-23T00:35:46;99917.41;;;14.49;38.71
45253;BME280;63171;50.520;30.486;2023-04-23T00:36:37;99918.59;;;14.45;38.57
45253;BME280;63171;50.520;30.486;2023-04-23T00:37:27;99918.91;;;14.30;38.55
45253;BME280;63171;50.520;30.486;2023-04-23T00:38:19;99921.75;;;14.27;38.74
45253;BME280;63171;50.520;30.486;2023-04-23T00:39:09;99922.09;;;14.11;38.75
45253;BME280;63171;50.520;30.486;2023-04-23T00:40:01;99920.47;;;14.32;38.84
45253;BME280;63171;50.520;30.486;2023-04-23T00:40:50;99919.66;;;14.43;39.02
45253;BME280;63171;50.520;30.486;2023-04-23T00:41:41;99922.66;;;14.49;39.01
45253;BME280;63171;50.520;30.486;2023-04-23T00:42:32;99916.44;;;14.51;38.99
45253;BME280;63171;50.520;30.486;2023-04-23T00:43:22;99925.75;;;14.43;38.92
45253;BME280;63171;50.520;30.486;2023-04-23T00:44:13;99924.72;;;14.46;39.03
45253;BME280;63171;50.520;30.486;2023-04-23T00:45:03;99918.13;;;14.52;39.11
45253;BME280;63171;50.520;30.486;2023-04-23T00:45:55;99923.25;;;14.53;39.07
45253;BME280;63171;50.520;30.486;2023-04-23T00:46:45;99915.13;;;14.45;39.08
45253;BME280;63171;50.520;30.486;2023-04-23T00:47:36;99916.06;;;14.55;39.12
45253;BME280;63171;50.520;30.486;2023-04-23T00:48:26;99923.88;;;14.57;38.96
45253;BME280;63171;50.520;30.486;2023-04-23T00:49:18;99929.03;;;14.58;38.92
45253;BME280;63171;50.520;30.486;2023-04-23T00:50:08;99918.56;;;14.34;39.07
45253;BME280;63171;50.520;30.486;2023-04-23T00:51:02;99924.34;;;14.51;39.02
45253;BME280;63171;50.520;30.486;2023-04-23T00:51:52;99924.47;;;14.49;39.23
45253;BME280;63171;50.520;30.486;2023-04-23T00:52:43;99923.25;;;14.53;39.05
45253;BME280;63171;50.520;30.486;2023-04-23T00:53:34;99923.06;;;14.56;39.27
45253;BME280;63171;50.520;30.486;2023-04-23T00:54:24;99923.63;;;14.60;39.11
45253;BME280;63171;50.520;30.486;2023-04-23T00:55:15;99917.16;;;14.64;39.20
45253;BME280;63171;50.520;30.486;2023-04-23T00:56:05;99920.28;;;14.58;39.29
45253;BME280;63171;50.520;30.486;2023-04-23T00:56:57;99920.63;;;14.53;39.01
45253;BME280;63171;50.520;30.486;2023-04-23T00:57:49;99921.97;;;14.59;39.21
45253;BME280;63171;50.520;30.486;2023-04-23T00:58:39;99926.25;;;14.48;39.04
45253;BME280;63171;50.520;30.486;2023-04-23T00:59:30;99923.75;;;14.47;39.32
45253;BME280;63171;50.520;30.486;2023-04-23T01:00:21;99924.53;;;14.36;39.32
45253;BME280;63171;50.520;30.486;2023-04-23T01:01:12;99926.94;;;14.39;39.25
45253;BME280;63171;50.520;30.486;2023-04-23T01:02:02;99925.84;;;14.42;39.16
45253;BME280;63171;50.520;30.486;2023-04-23T01:02:53;99922.19;;;14.44;39.13
45253;BME280;63171;50.520;30.486;2023-04-23T01:03:43;99926.19;;;14.26;39.28
45253;BME280;63171;50.520;30.486;2023-04-23T01:04:35;99921.78;;;14.38;39.34
45253;BME280;63171;50.520;30.486;2023-04-23T01:05:27;99925.44;;;14.48;39.33
45253;BME280;63171;50.520;30.486;2023-04-23T01:06:18;99922.44;;;14.53;39.23
45253;BME280;63171;50.520;30.486;2023-04-23T01:07:08;99917.78;;;14.56;39.45
45253;BME280;63171;50.520;30.486;2023-04-23T01:07:58;99923.22;;;14.42;39.31
45253;BME280;63171;50.520;30.486;2023-04-23T01:08:50;99920.81;;;14.28;39.36
45253;BME280;63171;50.520;30.486;2023-04-23T01:09:40;99915.09;;;14.34;39.45
45253;BME280;63171;50.520;30.486;2023-04-23T01:10:31;99920.94;;;14.37;39.49
45253;BME280;63171;50.520;30.486;2023-04-23T01:11:21;99917.09;;;14.41;39.47
45253;BME280;63171;50.520;30.486;2023-04-23T01:12:13;99915.72;;;14.48;39.37
45253;BME280;63171;50.520;30.486;2023-04-23T01:13:04;99920.75;;;14.52;39.40
45253;BME280;63171;50.520;30.486;2023-04-23T01:13:55;99920.75;;;14.52;39.56
45253;BME280;63171;50.520;30.486;2023-04-23T01:14:45;99921.47;;;14.54;39.69
45253;BME280;63171;50.520;30.486;2023-04-23T01:15:36;99918.34;;;14.48;39.46
45253;BME280;63171;50.520;30.486;2023-04-23T01:16:26;99915.47;;;14.52;39.40
45253;BME280;63171;50.520;30.486;2023-04-23T01:17:17;99918.63;;;14.57;39.38
45253;BME280;63171;50.520;30.486;2023-04-23T01:18:07;99923.06;;;14.56;39.31
45253;BME280;63171;50.520;30.486;2023-04-23T01:18:57;99913.53;;;14.42;39.61
45253;BME280;63171;50.520;30.486;2023-04-23T01:19:48;99911.13;;;14.39;39.27
45253;BME280;63171;50.520;30.486;2023-04-23T01:20:38;99917.22;;;14.40;39.41
45253;BME280;63171;50.520;30.486;2023-04-23T01:21:29;99917.59;;;14.35;39.45
45253;BME280;63171;50.520;30.486;2023-04-23T01:22:21;99921.63;;;14.28;39.25
45253;BME280;63171;50.520;30.486;2023-04-23T01:23:11;99923.94;;;14.33;39.43
45253;BME280;63171;50.520;30.486;2023-04-23T01:24:02;99917.97;;;14.31;39.40
45253;BME280;63171;50.520;30.486;2023-04-23T01:24:53;99923.44;;;14.28;39.43
45253;BME280;63171;50.520;30.486;2023-04-23T01:25:43;99921.38;;;14.09;39.37
45253;BME280;63171;50.520;30.486;2023-04-23T01:26:35;99919.50;;;14.22;39.29
45253;BME280;63171;50.520;30.486;2023-04-23T01:27:25;99923.81;;;14.23;39.49
45253;BME280;63171;50.520;30.486;2023-04-23T01:28:16;99922.50;;;14.17;39.47
45253;BME280;63171;50.520;30.486;2023-04-23T01:29:06;99923.31;;;14.18;39.53
45253;BME280;63171;50.520;30.486;2023-04-23T01:29:58;99925.13;;;14.29;39.57
45253;BME280;63171;50.520;30.486;2023-04-23T01:30:50;99922.38;;;14.41;39.62
45253;BME280;63171;50.520;30.486;2023-04-23T01:31:41;99917.09;;;14.41;39.85
45253;BME280;63171;50.520;30.486;2023-04-23T01:32:33;99922.06;;;14.46;39.58
45253;BME280;63171;50.520;30.486;2023-04-23T01:33:25;99925.84;;;14.42;39.72
45253;BME280;63171;50.520;30.486;2023-04-23T01:34:15;99928.47;;;14.42;39.80
45253;BME280;63171;50.520;30.486;2023-04-23T01:35:07;99927.53;;;14.32;39.79
45253;BME280;63171;50.520;30.486;2023-04-23T01:35:58;99931.34;;;14.16;39.46
45253;BME280;63171;50.520;30.486;2023-04-23T01:36:50;99921.63;;;14.28;40.00
45253;BME280;63171;50.520;30.486;2023-04-23T01:37:42;99925.38;;;14.37;39.99
45253;BME280;63171;50.520;30.486;2023-04-23T01:38:35;99926.69;;;14.31;39.83
45253;BME280;63171;50.520;30.486;2023-04-23T01:39:26;99922.88;;;14.35;39.87
45253;BME280;63171;50.520;30.486;2023-04-23T01:40:17;99920.72;;;14.29;39.90
45253;BME280;63171;50.520;30.486;2023-04-23T01:41:07;99928.34;;;14.21;39.86
45253;BME280;63171;50.520;30.486;2023-04-23T01:41:58;99922.03;;;14.35;40.00
45253;BME280;63171;50.520;30.486;2023-04-23T01:42:49;99924.19;;;14.30;39.93
45253;BME280;63171;50.520;30.486;2023-04-23T01:43:40;99927.06;;;14.38;40.01
45253;BME280;63171;50.520;30.486;2023-04-23T01:44:31;99923.59;;;14.37;39.97
45253;BME280;63171;50.520;30.486;2023-04-23T01:45:21;99929.81;;;14.36;40.00
45253;BME280;63171;50.520;30.486;2023-04-23T01:46:11;99918.78;;;14.31;39.97
45253;BME280;63171;50.520;30.486;2023-04-23T01:47:02;99926.06;;;14.28;39.91
45253;BME280;63171;50.520;30.486;2023-04-23T01:47:54;99923.69;;;14.36;40.01
45253;BME280;63171;50.520;30.486;2023-04-23T01:48:45;99931.34;;;14.28;40.09
45253;BME280;63171;50.520;30.486;2023-04-23T01:49:35;99925.34;;;14.26;40.05
45253;BME280;63171;50.520;30.486;2023-04-23T01:50:25;99930.88;;;14.23;40.08
45253;BME280;63171;50.520;30.486;2023-04-23T01:51:18;99935.06;;;14.25;39.79
45253;BME280;63171;50.520;30.486;2023-04-23T01:52:08;99924.91;;;14.32;40.09
45253;BME280;63171;50.520;30.486;2023-04-23T01:52:59;99931.72;;;14.34;40.11
45253;BME280;63171;50.520;30.486;2023-04-23T01:53:50;99935.06;;;14.36;40.09
45253;BME280;63171;50.520;30.486;2023-04-23T01:54:40;99929.44;;;14.41;40.05
45253;BME280;63171;50.520;30.486;2023-04-23T01:55:31;99930.06;;;14.33;40.13
45253;BME280;63171;50.520;30.486;2023-04-23T01:56:24;99934.59;;;14.31;39.99
45253;BME280;63171;50.520;30.486;2023-04-23T01:57:16;99930.03;;;14.22;39.95
45253;BME280;63171;50.520;30.486;2023-04-23T01:58:12;99928.22;;;14.23;40.33
45253;BME280;63171;50.520;30.486;2023-04-23T01:59:03;99929.88;;;14.12;39.96
45253;BME280;63171;50.520;30.486;2023-04-23T02:00:05;99930.03;;;14.22;40.07
45253;BME280;63171;50.520;30.486;2023-04-23T02:01:02;99940.19;;;14.27;40.06
45253;BME280;63171;50.520;30.486;2023-04-23T02:01:52;99937.56;;;14.27;40.05
45253;BME280;63171;50.520;30.486;2023-04-23T02:02:43;99933.97;;;14.28;40.07
45253;BME280;63171;50.520;30.486;2023-04-23T02:03:33;99933.97;;;14.28;40.17
45253;BME280;63171;50.520;30.486;2023-04-23T02:04:23;99935.66;;;14.29;40.20
45253;BME280;63171;50.520;30.486;2023-04-23T02:05:16;99942.97;;;14.36;40.33
45253;BME280;63171;50.520;30.486;2023-04-23T02:06:07;99941.19;;;14.37;40.28
45253;BME280;63171;50.520;30.486;2023-04-23T02:06:58;99942.97;;;14.36;40.24
45253;BME280;63171;50.520;30.486;2023-04-23T02:07:50;99934.47;;;14.33;40.14
45253;BME280;63171;50.520;30.486;2023-04-23T02:08:42;99937.97;;;14.33;39.94
45253;BME280;63171;50.520;30.486;2023-04-23T02:09:32;99936.41;;;14.31;40.19
45253;BME280;63171;50.520;30.486;2023-04-23T02:10:24;99936.28;;;14.32;40.20
45253;BME280;63171;50.520;30.486;2023-04-23T02:11:14;99932.31;;;14.27;40.14
45253;BME280;63171;50.520;30.486;2023-04-23T02:12:05;99936.00;;;14.24;40.14
45253;BME280;63171;50.520;30.486;2023-04-23T02:12:55;99936.00;;;14.24;40.38
45253;BME280;63171;50.520;30.486;2023-04-23T02:13:46;99938.41;;;14.27;40.19
45253;BME280;63171;50.520;30.486;2023-04-23T02:14:36;99942.25;;;14.23;40.31
45253;BME280;63171;50.520;30.486;2023-04-23T02:15:27;99936.72;;;14.26;40.27
45253;BME280;63171;50.520;30.486;2023-04-23T02:16:17;99943.56;;;14.17;40.33
45253;BME280;63171;50.520;30.486;2023-04-23T02:17:07;99940.09;;;14.17;40.50
45253;BME280;63171;50.520;30.486;2023-04-23T02:17:57;99935.03;;;14.03;40.65
45253;BME280;63171;50.520;30.486;2023-04-23T02:18:48;99935.63;;;14.06;40.53
45253;BME280;63171;50.520;30.486;2023-04-23T02:19:40;99934.53;;;14.09;40.41
45253;BME280;63171;50.520;30.486;2023-04-23T02:20:31;99935.25;;;14.11;40.33
45253;BME280;63171;50.520;30.486;2023-04-23T02:21:21;99939.22;;;14.05;40.44
45253;BME280;63171;50.520;30.486;2023-04-23T02:22:11;99939.22;;;14.05;40.49
45253;BME280;63171;50.520;30.486;2023-04-23T02:23:01;99942.94;;;14.14;40.41
45253;BME280;63171;50.520;30.486;2023-04-23T02:23:53;99942.72;;;14.17;40.50
45253;BME280;63171;50.520;30.486;2023-04-23T02:24:44;99938.16;;;14.19;40.69
45253;BME280;63171;50.520;30.486;2023-04-23T02:25:36;99936.63;;;14.16;40.54
45253;BME280;63171;50.520;30.486;2023-04-23T02:26:28;99935.34;;;13.98;40.39
45253;BME280;63171;50.520;30.486;2023-04-23T02:27:19;99941.38;;;14.11;40.57
45253;BME280;63171;50.520;30.486;2023-04-23T02:28:08;99942.09;;;14.13;40.61
45253;BME280;63171;50.520;30.486;2023-04-23T02:29:03;99943.41;;;14.08;40.69
45253;BME280;63171;50.520;30.486;2023-04-23T02:29:54;99940.28;;;14.14;40.56
45253;BME280;63171;50.520;30.486;2023-04-23T02:30:44;99946.28;;;14.05;40.51
45253;BME280;63171;50.520;30.486;2023-04-23T02:31:36;99944.38;;;14.07;40.70
45253;BME280;63171;50.520;30.486;2023-04-23T02:32:26;99941.97;;;14.04;40.79
45253;BME280;63171;50.520;30.486;2023-04-23T02:33:17;99940.53;;;14.11;40.66
45253;BME280;63171;50.520;30.486;2023-04-23T02:34:08;99936.69;;;14.15;40.80
45253;BME280;63171;50.520;30.486;2023-04-23T02:34:58;99949.16;;;14.13;40.59
45253;BME280;63171;50.520;30.486;2023-04-23T02:35:50;99955.97;;;14.15;40.71
45253;BME280;63171;50.520;30.486;2023-04-23T02:36:40;99947.59;;;14.10;40.87
45253;BME280;63171;50.520;30.486;2023-04-23T02:37:31;99946.53;;;14.13;40.87
45253;BME280;63171;50.520;30.486;2023-04-23T02:38:21;99949.53;;;14.19;40.91
45253;BME280;63171;50.520;30.486;2023-04-23T02:39:13;99951.94;;;14.23;40.87
45253;BME280;63171;50.520;30.486;2023-04-23T02:40:05;99948.44;;;14.11;40.66
45253;BME280;63171;50.520;30.486;2023-04-23T02:40:56;99952.50;;;14.15;40.99
45253;BME280;63171;50.520;30.486;2023-04-23T02:41:46;99953.69;;;14.11;40.94
45253;BME280;63171;50.520;30.486;2023-04-23T02:42:37;99949.50;;;14.08;41.01
45253;BME280;63171;50.520;30.486;2023-04-23T02:43:27;99949.75;;;14.05;41.03
45253;BME280;63171;50.520;30.486;2023-04-23T02:44:18;99946.41;;;14.03;41.18
45253;BME280;63171;50.520;30.486;2023-04-23T02:45:09;99954.06;;;14.06;40.98
45253;BME280;63171;50.520;30.486;2023-04-23T02:46:00;99953.47;;;14.14;41.18
45253;BME280;63171;50.520;30.486;2023-04-23T02:46:56;99955.50;;;14.10;41.07
45253;BME280;63171;50.520;30.486;2023-04-23T02:47:47;99954.78;;;14.08;41.27
45253;BME280;63171;50.520;30.486;2023-04-23T02:48:37;99952.38;;;14.05;41.18
45253;BME280;63171;50.520;30.486;2023-04-23T02:49:28;99956.81;;;14.05;41.07
45253;BME280;63171;50.520;30.486;2023-04-23T02:50:18;99960.66;;;14.12;41.24
45253;BME280;63171;50.520;30.486;2023-04-23T02:51:11;99958.72;;;14.14;41.26
45253;BME280;63171;50.520;30.486;2023-04-23T02:52:01;99952.75;;;14.12;41.21
45253;BME280;63171;50.520;30.486;2023-04-23T02:52:52;99960.88;;;14.09;41.11
45253;BME280;63171;50.520;30.486;2023-04-23T02:53:42;99954.38;;;14.02;41.36
45253;BME280;63171;50.520;30.486;2023-04-23T02:54:35;99953.53;;;14.01;41.22
45253;BME280;63171;50.520;30.486;2023-04-23T02:55:25;99951.44;;;14.06;41.41
45253;BME280;63171;50.520;30.486;2023-04-23T02:56:20;99965.06;;;14.11;41.26
45253;BME280;63171;50.520;30.486;2023-04-23T02:57:10;99951.66;;;14.03;41.02
45253;BME280;63171;50.520;30.486;2023-04-23T02:58:02;99954.75;;;13.97;41.17
45253;BME280;63171;50.520;30.486;2023-04-23T02:58:53;99956.44;;;13.74;41.25
45253;BME280;63171;50.520;30.486;2023-04-23T02:59:44;99959.00;;;13.76;41.45
45253;BME280;63171;50.520;30.486;2023-04-23T03:00:34;99961.03;;;13.83;41.54
45253;BME280;63171;50.520;30.486;2023-04-23T03:01:25;99957.19;;;13.76;41.71
45253;BME280;63171;50.520;30.486;2023-04-23T03:02:15;99956.44;;;13.74;41.50
45253;BME280;63171;50.520;30.486;2023-04-23T03:03:05;99954.31;;;13.79;41.66
45253;BME280;63171;50.520;30.486;2023-04-23T03:03:56;99950.75;;;13.80;41.88
45253;BME280;63171;50.520;30.486;2023-04-23T03:04:46;99959.06;;;13.74;41.68
45253;BME280;63171;50.520;30.486;2023-04-23T03:05:37;99954.56;;;13.76;41.79
45253;BME280;63171;50.520;30.486;2023-04-23T03:06:28;99963.31;;;13.88;41.89
45253;BME280;63171;50.520;30.486;2023-04-23T03:07:20;99958.22;;;13.98;41.94
45253;BME280;63171;50.520;30.486;2023-04-23T03:08:10;99955.53;;;13.86;42.08
45253;BME280;63171;50.520;30.486;2023-04-23T03:09:01;99958.69;;;13.92;41.96
45253;BME280;63171;50.520;30.486;2023-04-23T03:09:52;99955.16;;;13.80;41.97
45253;BME280;63171;50.520;30.486;2023-04-23T03:10:43;99956.72;;;13.82;41.88
45253;BME280;63171;50.520;30.486;2023-04-23T03:11:33;99955.22;;;13.91;42.16
45253;BME280;63171;50.520;30.486;2023-04-23T03:12:24;99961.28;;;13.80;42.02
45253;BME280;63171;50.520;30.486;2023-04-23T03:13:14;99959.13;;;13.85;42.14
45253;BME280;63171;50.520;30.486;2023-04-23T03:14:04;99959.84;;;13.87;42.19
45253;BME280;63171;50.520;30.486;2023-04-23T03:14:55;99962.38;;;13.89;42.21
45253;BME280;63171;50.520;30.486;2023-04-23T03:15:48;99962.41;;;14.00;42.42
45253;BME280;63171;50.520;30.486;2023-04-23T03:16:40;99962.75;;;13.96;42.33
45253;BME280;63171;50.520;30.486;2023-04-23T03:17:30;99966.00;;;13.99;42.31
45253;BME280;63171;50.520;30.486;2023-04-23T03:18:21;99968.13;;;13.94;42.43
45253;BME280;63171;50.520;30.486;2023-04-23T03:19:14;99963.59;;;13.96;42.34
45253;BME280;63171;50.520;30.486;2023-04-23T03:20:07;99967.72;;;13.76;42.35
45253;BME280;63171;50.520;30.486;2023-04-23T03:21:00;99968.09;;;13.59;42.33
45253;BME280;63171;50.520;30.486;2023-04-23T03:21:52;99966.31;;;13.59;42.09
45253;BME280;63171;50.520;30.486;2023-04-23T03:22:42;99968.75;;;13.74;42.35
45253;BME280;63171;50.520;30.486;2023-04-23T03:23:33;99970.38;;;13.87;42.59
45253;BME280;63171;50.520;30.486;2023-04-23T03:24:23;99974.59;;;13.90;42.48
45253;BME280;63171;50.520;30.486;2023-04-23T03:25:15;99969.22;;;13.92;42.60
45253;BME280;63171;50.520;30.486;2023-04-23T03:26:05;99968.75;;;13.98;42.57
45253;BME280;63171;50.520;30.486;2023-04-23T03:26:56;99978.28;;;13.87;42.65
45253;BME280;63171;50.520;30.486;2023-04-23T03:27:46;99973.72;;;13.78;42.65
45253;BME280;63171;50.520;30.486;2023-04-23T03:28:37;99974.06;;;13.85;42.63
45253;BME280;63171;50.520;30.486;2023-04-23T03:29:27;99978.78;;;13.93;43.00
45253;BME280;63171;50.520;30.486;2023-04-23T03:30:19;99973.28;;;13.96;42.68
45253;BME280;63171;50.520;30.486;2023-04-23T03:31:09;99973.84;;;13.88;42.73
45253;BME280;63171;50.520;30.486;2023-04-23T03:32:00;99979.03;;;13.89;42.81
45253;BME280;63171;50.520;30.486;2023-04-23T03:32:50;99978.50;;;13.84;42.73
45253;BME280;63171;50.520;30.486;2023-04-23T03:33:41;99975.44;;;13.90;42.88
45253;BME280;63171;50.520;30.486;2023-04-23T03:34:31;99981.66;;;13.89;42.79
45253;BME280;63171;50.520;30.486;2023-04-23T03:35:22;99974.97;;;13.73;42.67
45253;BME280;63171;50.520;30.486;2023-04-23T03:36:12;99977.78;;;13.82;42.84
45253;BME280;63171;50.520;30.486;2023-04-23T03:37:03;99977.22;;;13.90;42.99
45253;BME280;63171;50.520;30.486;2023-04-23T03:37:55;99983.69;;;13.97;42.52
45253;BME280;63171;50.520;30.486;2023-04-23T03:38:48;99983.34;;;13.90;42.85
45253;BME280;63171;50.520;30.486;2023-04-23T03:39:39;99977.78;;;13.82;42.76
45253;BME280;63171;50.520;30.486;2023-04-23T03:40:31;99986.09;;;13.65;42.78
45253;BME280;63171;50.520;30.486;2023-04-23T03:41:25;99988.31;;;13.82;43.10
45253;BME280;63171;50.520;30.486;2023-04-23T03:42:16;99992.91;;;13.92;43.07
45253;BME280;63171;50.520;30.486;2023-04-23T03:43:07;99985.22;;;13.88;43.07
45253;BME280;63171;50.520;30.486;2023-04-23T03:44:29;99989.94;;;13.96;43.17
45253;BME280;63171;50.520;30.486;2023-04-23T03:45:20;99991.84;;;13.70;43.05
45253;BME280;63171;50.520;30.486;2023-04-23T03:46:10;99987.94;;;13.76;43.25
45253;BME280;63171;50.520;30.486;2023-04-23T03:47:04;99985.06;;;13.55;43.05
45253;BME280;63171;50.520;30.486;2023-04-23T03:47:55;99996.38;;;13.68;43.16
45253;BME280;63171;50.520;30.486;2023-04-23T03:48:45;99988.19;;;13.84;43.29
45253;BME280;63171;50.520;30.486;2023-04-23T03:49:44;99990.00;;;13.83;43.24
45253;BME280;63171;50.520;30.486;2023-04-23T03:50:34;99988.06;;;13.85;43.11
45253;BME280;63171;50.520;30.486;2023-04-23T03:51:36;99980.47;;;13.70;43.15
45253;BME280;63171;50.520;30.486;2023-04-23T03:52:26;99989.63;;;13.77;43.27
45253;BME280;63171;50.520;30.486;2023-04-23T03:53:17;99990.59;;;13.87;43.50
45253;BME280;63171;50.520;30.486;2023-04-23T03:54:36;99988.59;;;13.90;43.51
45253;BME280;63171;50.520;30.486;2023-04-23T03:55:35;99991.47;;;13.99;43.50
45253;BME280;63171;50.520;30.486;2023-04-23T03:56:25;99995.25;;;13.83;43.60
45253;BME280;63171;50.520;30.486;2023-04-23T03:57:28;99989.69;;;13.75;43.32
45253;BME280;63171;50.520;30.486;2023-04-23T03:58:32;99992.84;;;13.80;43.63
45253;BME280;63171;50.520;30.486;2023-04-23T03:59:23;99995.19;;;13.96;43.86
45253;BME280;63171;50.520;30.486;2023-04-23T04:00:16;99996.75;;;13.99;43.78
45253;BME280;63171;50.520;30.486;2023-04-23T04:01:06;99995.31;;;13.95;43.55
45253;BME280;63171;50.520;30.486;2023-04-23T04:01:57;99999.75;;;13.94;43.80
45253;BME280;63171;50.520;30.486;2023-04-23T04:02:48;99997.28;;;14.04;44.02
45253;BME280;63171;50.520;30.486;2023-04-23T04:03:39;99999.91;;;14.04;44.11
45253;BME280;63171;50.520;30.486;2023-04-23T04:04:29;100001.34;;;14.08;44.07
45253;BME280;63171;50.520;30.486;2023-04-23T04:05:19;100004.16;;;13.94;44.07
45253;BME280;63171;50.520;30.486;2023-04-23T04:06:09;100006.97;;;13.79;44.00
45253;BME280;63171;50.520;30.486;2023-04-23T04:06:59;100007.34;;;13.86;44.14
45253;BME280;63171;50.520;30.486;2023-04-23T04:07:50;99999.97;;;13.91;44.33
45253;BME280;63171;50.520;30.486;2023-04-23T04:08:40;100007.28;;;13.99;44.33
45253;BME280;63171;50.520;30.486;2023-04-23T04:09:30;100011.28;;;14.04;44.40
45253;BME280;63171;50.520;30.486;2023-04-23T04:10:24;100006.69;;;13.95;44.64
45253;BME280;63171;50.520;30.486;2023-04-23T04:11:16;100006.84;;;14.05;44.55
45253;BME280;63171;50.520;30.486;2023-04-23T04:12:07;100013.09;;;14.15;44.55
45253;BME280;63171;50.520;30.486;2023-04-23T04:12:57;100007.56;;;14.07;44.62
45253;BME280;63171;50.520;30.486;2023-04-23T04:13:47;100010.19;;;14.07;44.52
45253;BME280;63171;50.520;30.486;2023-04-23T04:14:38;100016.78;;;14.12;45.01
45253;BME280;63171;50.520;30.486;2023-04-23T04:15:28;100009.59;;;14.03;44.97
45253;BME280;63171;50.520;30.486;2023-04-23T04:16:20;100007.16;;;14.00;45.02
45253;BME280;63171;50.520;30.486;2023-04-23T04:17:10;100006.84;;;14.05;44.92
45253;BME280;63171;50.520;30.486;2023-04-23T04:18:04;100017.50;;;14.14;45.17
45253;BME280;63171;50.520;30.486;2023-04-23T04:18:53;100012.44;;;14.00;45.05
45253;BME280;63171;50.520;30.486;2023-04-23T04:19:44;100016.91;;;14.11;45.20
45253;BME280;63171;50.520;30.486;2023-04-23T04:20:34;100010.63;;;14.01;45.29
45253;BME280;63171;50.520;30.486;2023-04-23T04:21:25;100012.66;;;13.73;44.96
45253;BME280;63171;50.520;30.486;2023-04-23T04:22:16;100012.13;;;13.81;45.11
45253;BME280;63171;50.520;30.486;2023-04-23T04:23:07;100014.88;;;14.03;45.13
45253;BME280;63171;50.520;30.486;2023-04-23T04:23:57;100017.88;;;14.10;45.12
45253;BME280;63171;50.520;30.486;2023-04-23T04:24:50;100012.38;;;14.13;45.14
45253;BME280;63171;50.520;30.486;2023-04-23T04:25:41;100023.47;;;14.29;45.34
45253;BME280;63171;50.520;30.486;2023-04-23T04:26:33;100020.34;;;14.35;45.38
45253;BME280;63171;50.520;30.486;2023-04-23T04:27:23;100019.38;;;14.36;45.25
45253;BME280;63171;50.520;30.486;2023-04-23T04:28:13;100017.00;;;14.33;45.29
45253;BME280;63171;50.520;30.486;2023-04-23T04:29:04;100023.69;;;14.37;45.48
45253;BME280;63171;50.520;30.486;2023-04-23T04:29:54;100019.72;;;14.20;45.25
45253;BME280;63171;50.520;30.486;2023-04-23T04:30:45;100016.72;;;14.25;45.41
45253;BME280;63171;50.520;30.486;2023-04-23T04:31:35;100019.94;;;14.29;45.25
45253;BME280;63171;50.520;30.486;2023-04-23T04:32:25;100025.63;;;14.35;45.25